Time;durP1;ratioP1;P1;durP2;ratioP2;P2;SDS_P1;SDS_P2;PMS_P1;PMS_P2;Temp;Humidity;BMP_temperature;BMP_pressure;BME280_temperature;BME280_humidity;BME280_pressure;Samples;Min_cycle;Max_cycle;Signal;HPM_P1;HPM_P2
2023/10/22 00:02:11;;;;;;;2.58;0.80;;;15.70;70.30;;;;;;5079427;28;20195;-67
2023/10/22 00:04:40;;;;;;;1.45;0.63;;;15.80;70.40;;;;;;5081731;28;20020;-67
2023/10/22 00:07:07;;;;;;;3.10;1.00;;;15.70;70.50;;;;;;5082143;28;20408;-67
2023/10/22 00:09:33;;;;;;;2.15;0.75;;;15.70;70.90;;;;;;5089356;28;20587;-67
2023/10/22 00:11:59;;;;;;;2.95;0.90;;;15.70;71.10;;;;;;5092379;28;20032;-67
2023/10/22 00:14:25;;;;;;;3.80;0.80;;;15.70;71.20;;;;;;5081208;28;20047;-68
2023/10/22 00:16:51;;;;;;;3.22;1.13;;;15.60;71.20;;;;;;5083332;28;20069;-67
2023/10/22 00:19:17;;;;;;;1.80;0.60;;;15.70;71.30;;;;;;5079106;28;20092;-67
2023/10/22 00:21:42;;;;;;;2.30;0.90;;;15.60;71.40;;;;;;5090637;28;20024;-67
2023/10/22 00:24:08;;;;;;;6.90;1.20;;;15.70;71.50;;;;;;5099988;28;20036;-67
2023/10/22 00:26:34;;;;;;;2.30;0.98;;;15.60;71.50;;;;;;5092477;28;20024;-67
2023/10/22 00:29:00;;;;;;;2.08;0.85;;;15.60;71.60;;;;;;5084183;28;20456;-67
2023/10/22 00:31:26;;;;;;;5.05;0.90;;;15.60;71.60;;;;;;5090023;28;20024;-68
2023/10/22 00:33:52;;;;;;;2.95;0.80;;;15.60;71.60;;;;;;5074883;28;20482;-67
2023/10/22 00:36:18;;;;;;;2.72;1.02;;;15.60;71.70;;;;;;5089475;28;20035;-67
2023/10/22 00:38:43;;;;;;;2.58;0.73;;;15.60;71.70;;;;;;5056894;28;20027;-67
2023/10/22 00:41:10;;;;;;;3.13;0.80;;;15.60;71.70;;;;;;5084122;28;20476;-67
2023/10/22 00:43:36;;;;;;;2.65;0.80;;;15.60;71.80;;;;;;5090691;28;20115;-67
2023/10/22 00:46:02;;;;;;;5.47;1.27;;;15.60;71.80;;;;;;5081935;28;20107;-67
2023/10/22 00:48:29;;;;;;;2.08;0.80;;;15.60;71.80;;;;;;5074121;28;20094;-67
2023/10/22 00:50:56;;;;;;;5.00;1.42;;;15.60;72.00;;;;;;5073913;28;20047;-68
2023/10/22 00:53:27;;;;;;;4.35;1.15;;;15.60;71.90;;;;;;5090917;28;20128;-67
2023/10/22 00:55:53;;;;;;;4.18;1.33;;;15.60;71.90;;;;;;5084251;28;20025;-67
2023/10/22 00:58:20;;;;;;;2.15;0.70;;;15.60;71.90;;;;;;5072591;28;20094;-67
2023/10/22 01:00:46;;;;;;;2.28;0.75;;;15.60;71.90;;;;;;5084457;28;20034;-67
2023/10/22 01:03:12;;;;;;;1.38;0.88;;;15.60;71.80;;;;;;5077962;28;20518;-67
2023/10/22 01:05:38;;;;;;;3.83;0.95;;;15.60;71.80;;;;;;5088579;28;20024;-67
2023/10/22 01:08:07;;;;;;;2.80;1.05;;;15.60;71.90;;;;;;5085399;28;20441;-67
2023/10/22 01:10:33;;;;;;;3.42;0.98;;;15.60;72.10;;;;;;5081375;28;20028;-68
2023/10/22 01:13:00;;;;;;;3.67;0.95;;;15.60;72.30;;;;;;5076049;28;20085;-67
2023/10/22 01:15:26;;;;;;;2.83;0.93;;;15.60;72.40;;;;;;5072410;28;20038;-67
2023/10/22 01:17:52;;;;;;;4.28;0.93;;;15.60;72.60;;;;;;5078694;28;20028;-68
2023/10/22 01:20:18;;;;;;;1.25;0.63;;;15.60;72.70;;;;;;5089410;28;20028;-67
2023/10/22 01:22:44;;;;;;;3.13;0.90;;;15.50;72.80;;;;;;5087015;28;20020;-67
2023/10/22 01:25:10;;;;;;;4.75;1.00;;;15.50;73.00;;;;;;5080315;28;20027;-67
2023/10/22 01:27:36;;;;;;;3.75;1.02;;;15.50;73.10;;;;;;5092800;28;20344;-67
2023/10/22 01:30:03;;;;;;;3.20;0.95;;;15.50;73.30;;;;;;5093817;28;20056;-67
2023/10/22 01:32:33;;;;;;;2.85;0.95;;;15.50;73.50;;;;;;5091677;28;20028;-68
2023/10/22 01:35:00;;;;;;;3.15;1.15;;;15.50;73.50;;;;;;5092246;28;20047;-67
2023/10/22 01:37:26;;;;;;;1.58;0.80;;;15.50;73.60;;;;;;5095086;28;20173;-67
2023/10/22 01:39:52;;;;;;;3.47;1.05;;;15.50;73.60;;;;;;5107269;28;20098;-67
2023/10/22 01:42:18;;;;;;;2.92;1.15;;;15.50;73.70;;;;;;5101599;28;20024;-67
2023/10/22 01:44:44;;;;;;;3.22;1.17;;;15.50;73.70;;;;;;5091842;28;20046;-67
2023/10/22 01:47:12;;;;;;;4.43;0.90;;;15.50;73.80;;;;;;5098126;28;20041;-67
2023/10/22 01:49:39;;;;;;;3.70;0.90;;;15.40;73.80;;;;;;5089953;28;20036;-67
2023/10/22 01:52:05;;;;;;;2.20;1.00;;;15.50;73.90;;;;;;5102551;28;20409;-67
2023/10/22 01:54:31;;;;;;;2.38;1.10;;;15.50;73.90;;;;;;5105935;28;20031;-67
2023/10/22 01:56:56;;;;;;;4.70;1.25;;;15.50;73.90;;;;;;5102960;28;20456;-67
2023/10/22 01:59:22;;;;;;;2.67;0.80;;;15.50;73.90;;;;;;5116225;28;20038;-67
2023/10/22 02:01:48;;;;;;;4.60;1.10;;;15.50;74.50;;;;;;5095956;28;20022;-67
2023/10/22 02:04:14;;;;;;;3.47;0.90;;;15.50;73.80;;;;;;5101050;28;20087;-67
2023/10/22 02:06:40;;;;;;;4.20;1.10;;;15.50;73.80;;;;;;5095280;28;20111;-67
2023/10/22 02:09:06;;;;;;;6.28;1.10;;;15.50;74.00;;;;;;5081674;28;20102;-67
2023/10/22 02:11:32;;;;;;;4.70;1.35;;;15.50;74.10;;;;;;5091997;28;20036;-67
2023/10/22 02:13:58;;;;;;;3.95;1.13;;;15.40;74.20;;;;;;5103614;28;20080;-67
2023/10/22 02:16:25;;;;;;;4.45;1.13;;;15.50;74.40;;;;;;5107893;28;20030;-67
2023/10/22 02:18:51;;;;;;;2.13;0.85;;;15.40;74.50;;;;;;5109388;28;20023;-68
2023/10/22 02:21:19;;;;;;;4.28;1.10;;;15.50;74.80;;;;;;5114188;28;20016;-68
2023/10/22 02:23:44;;;;;;;4.20;1.33;;;15.40;75.00;;;;;;5090507;28;20028;-68
2023/10/22 02:26:10;;;;;;;3.30;1.02;;;15.40;75.40;;;;;;5116283;28;20049;-67
2023/10/22 02:28:36;;;;;;;2.75;0.90;;;15.30;75.70;;;;;;5077801;28;20358;-68
2023/10/22 02:31:04;;;;;;;3.50;1.08;;;15.30;76.00;;;;;;5103196;28;20092;-68
2023/10/22 02:33:30;;;;;;;2.85;1.10;;;15.30;76.40;;;;;;5094275;28;20157;-68
2023/10/22 02:35:55;;;;;;;2.83;1.10;;;15.30;76.60;;;;;;5081645;28;20127;-68
2023/10/22 02:38:21;;;;;;;1.58;0.90;;;15.30;76.90;;;;;;5097482;28;20098;-67
2023/10/22 02:40:48;;;;;;;3.47;1.23;;;15.20;77.00;;;;;;5089625;28;20104;-68
2023/10/22 02:43:14;;;;;;;3.40;1.25;;;15.20;77.30;;;;;;5079236;28;20069;-67
2023/10/22 02:45:53;;;;;;;4.57;1.30;;;15.10;77.50;;;;;;5115997;28;20035;-68
2023/10/22 02:48:20;;;;;;;4.55;1.10;;;15.10;77.70;;;;;;5101377;28;20035;-68
2023/10/22 02:50:47;;;;;;;2.47;1.17;;;15.10;77.80;;;;;;5112663;28;20096;-67
2023/10/22 02:53:13;;;;;;;3.65;1.10;;;15.10;78.00;;;;;;5091375;28;20070;-67
2023/10/22 02:55:39;;;;;;;5.28;1.38;;;15.10;78.20;;;;;;5115755;28;20031;-67
2023/10/22 02:58:06;;;;;;;3.53;1.10;;;15.10;78.20;;;;;;5100886;28;20141;-67
2023/10/22 03:00:35;;;;;;;3.83;1.30;;;15.00;78.30;;;;;;5114921;28;20024;-68
2023/10/22 03:03:05;;;;;;;5.28;1.30;;;15.00;78.40;;;;;;5102428;28;20398;-68
2023/10/22 03:05:34;;;;;;;3.30;1.48;;;15.00;78.40;;;;;;5114779;28;20118;-67
2023/10/22 03:08:05;;;;;;;4.78;1.67;;;15.00;78.50;;;;;;5095974;28;20441;-67
2023/10/22 03:10:36;;;;;;;3.97;1.40;;;15.00;78.60;;;;;;5089488;28;20054;-67
2023/10/22 03:13:02;;;;;;;4.90;1.53;;;15.00;78.70;;;;;;5071317;28;20357;-67
2023/10/22 03:15:28;;;;;;;2.95;1.38;;;14.90;78.60;;;;;;5077759;28;20290;-67
2023/10/22 03:17:56;;;;;;;4.03;1.55;;;15.00;78.80;;;;;;5076084;28;20020;-67
2023/10/22 03:20:23;;;;;;;5.25;1.30;;;15.00;78.80;;;;;;5075652;28;20062;-67
2023/10/22 03:22:50;;;;;;;5.10;1.38;;;14.90;78.80;;;;;;5063497;28;20029;-67
2023/10/22 03:25:16;;;;;;;5.72;1.70;;;14.90;78.90;;;;;;5075991;28;20032;-67
2023/10/22 03:27:42;;;;;;;4.90;1.67;;;14.90;78.90;;;;;;5073965;28;20084;-67
2023/10/22 03:30:10;;;;;;;4.38;1.60;;;14.90;79.00;;;;;;5085784;28;20056;-67
2023/10/22 03:32:36;;;;;;;3.67;1.52;;;14.90;79.10;;;;;;5091404;28;20055;-67
2023/10/22 03:35:06;;;;;;;5.10;1.52;;;14.90;79.10;;;;;;5082728;28;20024;-67
2023/10/22 03:37:32;;;;;;;3.45;1.48;;;14.90;79.10;;;;;;5078083;28;20097;-67
2023/10/22 03:39:57;;;;;;;3.95;1.48;;;14.90;79.10;;;;;;5083597;28;20080;-67
2023/10/22 03:42:23;;;;;;;7.32;1.83;;;14.90;79.20;;;;;;5078664;28;20419;-68
2023/10/22 03:44:49;;;;;;;7.97;1.80;;;14.90;79.30;;;;;;5078616;28;20036;-67
2023/10/22 03:47:15;;;;;;;5.60;1.98;;;14.90;79.40;;;;;;5078469;28;20073;-67
2023/10/22 03:49:41;;;;;;;3.25;1.40;;;14.90;79.50;;;;;;5076976;28;20094;-67
2023/10/22 03:52:07;;;;;;;4.15;1.70;;;14.90;79.60;;;;;;5082187;28;20024;-68
2023/10/22 03:54:33;;;;;;;5.60;1.90;;;14.90;79.70;;;;;;5079899;28;20052;-67
2023/10/22 03:56:58;;;;;;;5.90;1.80;;;14.90;79.80;;;;;;5078196;28;20115;-67
2023/10/22 03:59:24;;;;;;;5.40;1.80;;;14.80;80.00;;;;;;5076483;28;20322;-67
2023/10/22 04:01:51;;;;;;;4.97;1.58;;;14.80;80.70;;;;;;5058238;28;20028;-68
2023/10/22 04:04:17;;;;;;;5.43;1.88;;;14.80;80.20;;;;;;5096288;28;20098;-67
2023/10/22 04:06:42;;;;;;;4.63;1.88;;;14.80;80.40;;;;;;5077631;28;20032;-67
2023/10/22 04:09:08;;;;;;;5.35;1.92;;;14.70;80.50;;;;;;5074539;28;20028;-67
2023/10/22 04:11:34;;;;;;;5.50;1.85;;;14.70;80.70;;;;;;5092212;28;20345;-67
2023/10/22 04:14:00;;;;;;;6.13;1.88;;;14.70;80.80;;;;;;5080868;28;20130;-67
2023/10/22 04:16:26;;;;;;;4.57;1.70;;;14.70;80.90;;;;;;5076443;28;20376;-67
2023/10/22 04:18:52;;;;;;;4.82;1.77;;;14.70;81.00;;;;;;5083570;28;20021;-67
2023/10/22 04:21:19;;;;;;;2.72;1.40;;;14.70;81.00;;;;;;5072223;28;20060;-67
2023/10/22 04:23:46;;;;;;;4.43;1.92;;;14.70;81.10;;;;;;5078981;28;20090;-67
2023/10/22 04:26:15;;;;;;;4.97;1.60;;;14.70;81.10;;;;;;5073709;28;20024;-67
2023/10/22 04:28:45;;;;;;;4.07;1.70;;;14.70;81.10;;;;;;5076909;28;20464;-67
2023/10/22 04:31:10;;;;;;;3.80;1.80;;;14.70;81.10;;;;;;5075506;28;20412;-67
2023/10/22 04:33:36;;;;;;;5.13;2.42;;;14.70;81.20;;;;;;5076882;28;20067;-67
2023/10/22 04:36:03;;;;;;;5.25;2.03;;;14.60;81.20;;;;;;5079961;28;20012;-67
2023/10/22 04:38:30;;;;;;;6.75;2.10;;;14.60;81.20;;;;;;5076944;28;20074;-67
2023/10/22 04:40:56;;;;;;;4.95;2.10;;;14.60;81.30;;;;;;5081060;28;20063;-67
2023/10/22 04:43:22;;;;;;;5.32;2.08;;;14.60;81.30;;;;;;5093595;28;20053;-67
2023/10/22 04:45:49;;;;;;;5.50;2.17;;;14.60;81.30;;;;;;5102912;28;20027;-67
2023/10/22 04:48:16;;;;;;;6.97;2.38;;;14.60;81.40;;;;;;5111515;28;20472;-67
2023/10/22 04:50:42;;;;;;;5.18;2.33;;;14.60;81.30;;;;;;5096044;28;20043;-66
2023/10/22 04:53:08;;;;;;;3.88;1.90;;;14.60;81.40;;;;;;5109253;28;20085;-66
2023/10/22 04:55:34;;;;;;;5.68;2.17;;;14.60;81.30;;;;;;5094700;28;20111;-67
2023/10/22 04:58:02;;;;;;;4.72;2.10;;;14.50;81.30;;;;;;5098016;28;20087;-66
2023/10/22 05:00:27;;;;;;;5.72;2.28;;;14.60;81.40;;;;;;5092192;28;20471;-67
2023/10/22 05:02:53;;;;;;;5.78;2.40;;;14.50;81.40;;;;;;5112730;28;20073;-67
2023/10/22 05:05:21;;;;;;;5.72;2.45;;;14.60;81.40;;;;;;5099517;28;20475;-66
2023/10/22 05:07:49;;;;;;;6.03;2.47;;;14.60;81.50;;;;;;5091952;28;20032;-67
2023/10/22 05:10:15;;;;;;;5.60;2.65;;;14.60;81.50;;;;;;5079976;28;20062;-66
2023/10/22 05:12:41;;;;;;;5.40;2.35;;;14.50;81.40;;;;;;5073712;28;20021;-66
2023/10/22 05:15:08;;;;;;;5.50;2.78;;;14.50;81.40;;;;;;5082527;28;20338;-66
2023/10/22 05:17:34;;;;;;;6.45;3.17;;;14.60;81.60;;;;;;5077493;28;20032;-67
2023/10/22 05:20:00;;;;;;;7.32;2.88;;;14.60;81.50;;;;;;5078603;28;20024;-67
2023/10/22 05:22:26;;;;;;;8.27;3.50;;;14.60;81.50;;;;;;5078629;28;20111;-66
2023/10/22 05:24:52;;;;;;;8.05;3.13;;;14.60;81.50;;;;;;5088817;28;20107;-67
2023/10/22 05:27:18;;;;;;;7.00;3.80;;;14.60;82.00;;;;;;5083866;28;20024;-67
2023/10/22 05:29:46;;;;;;;6.45;3.35;;;14.60;81.40;;;;;;5084332;28;20461;-67
2023/10/22 05:32:16;;;;;;;9.07;4.38;;;14.60;81.50;;;;;;5096089;28;20525;-67
2023/10/22 05:34:42;;;;;;;7.32;4.00;;;14.60;81.50;;;;;;5094930;28;20032;-67
2023/10/22 05:37:08;;;;;;;8.18;3.80;;;14.60;81.50;;;;;;5106683;28;20107;-66
2023/10/22 05:39:36;;;;;;;7.43;3.65;;;14.60;81.40;;;;;;5095874;28;20025;-66
2023/10/22 05:42:07;;;;;;;8.10;3.80;;;14.60;81.40;;;;;;5081646;28;20103;-67
2023/10/22 05:44:36;;;;;;;7.68;3.78;;;14.60;81.40;;;;;;5077720;28;20043;-66
2023/10/22 05:47:03;;;;;;;8.38;3.72;;;14.50;81.50;;;;;;5079642;28;20423;-67
2023/10/22 05:49:29;;;;;;;7.72;3.53;;;14.50;81.60;;;;;;5094108;28;20472;-67
2023/10/22 05:51:55;;;;;;;7.32;3.33;;;14.50;81.60;;;;;;5079996;28;20028;-67
2023/10/22 05:54:21;;;;;;;7.68;3.65;;;14.40;81.50;;;;;;5065610;28;20025;-67
2023/10/22 05:56:46;;;;;;;8.02;3.85;;;14.40;81.60;;;;;;5082866;28;20464;-67
2023/10/22 05:59:12;;;;;;;6.70;3.03;;;14.40;82.30;;;;;;5075236;28;20050;-67
2023/10/22 06:01:38;;;;;;;7.68;3.97;;;14.30;81.70;;;;;;5088942;28;20028;-67
2023/10/22 06:04:08;;;;;;;7.05;3.60;;;14.30;81.80;;;;;;5084972;28;20027;-67
2023/10/22 06:06:34;;;;;;;8.68;3.97;;;14.30;81.90;;;;;;5094505;28;20036;-67
2023/10/22 06:09:00;;;;;;;9.77;4.22;;;14.30;81.90;;;;;;5095246;28;20035;-67
2023/10/22 06:11:25;;;;;;;8.50;4.60;;;14.30;81.90;;;;;;5094451;28;20036;-67
2023/10/22 06:13:51;;;;;;;8.13;4.63;;;14.30;82.00;;;;;;5095672;28;20047;-67
2023/10/22 06:16:17;;;;;;;9.43;4.53;;;14.30;82.10;;;;;;5095311;28;20106;-68
2023/10/22 06:18:43;;;;;;;9.10;4.43;;;14.30;82.20;;;;;;5074364;28;20411;-68
2023/10/22 06:21:18;;;;;;;8.02;4.53;;;14.30;82.20;;;;;;5092556;28;20024;-67
2023/10/22 06:23:44;;;;;;;10.48;5.28;;;14.30;82.30;;;;;;5094729;28;20117;-68
2023/10/22 06:26:13;;;;;;;10.85;5.55;;;14.30;82.40;;;;;;5074335;28;20055;-68
2023/10/22 06:28:40;;;;;;;8.50;4.85;;;14.30;82.40;;;;;;5093702;28;20051;-69
2023/10/22 06:31:11;;;;;;;9.27;5.15;;;14.30;82.50;;;;;;5092506;28;20024;-68
2023/10/22 06:33:38;;;;;;;8.60;5.38;;;14.30;82.50;;;;;;5092230;28;20445;-68
2023/10/22 06:36:15;;;;;;;10.52;5.78;;;14.30;82.50;;;;;;5100794;28;20020;-68
2023/10/22 06:38:42;;;;;;;7.90;4.65;;;14.30;82.50;;;;;;5089258;28;20085;-68
2023/10/22 06:41:13;;;;;;;8.13;4.65;;;14.30;82.60;;;;;;5094944;28;20137;-68
2023/10/22 06:43:39;;;;;;;9.63;5.85;;;14.30;82.70;;;;;;5090398;28;20020;-68
2023/10/22 06:46:05;;;;;;;8.43;5.63;;;14.30;82.70;;;;;;5094726;28;20066;-68
2023/10/22 06:48:31;;;;;;;9.75;5.35;;;14.30;82.70;;;;;;5093828;28;20071;-69
2023/10/22 06:50:56;;;;;;;9.23;5.43;;;14.30;82.60;;;;;;5094309;28;20032;-67
2023/10/22 06:53:22;;;;;;;9.40;5.18;;;14.40;82.70;;;;;;5099956;28;20024;-67
2023/10/22 06:55:48;;;;;;;9.75;5.30;;;14.40;82.70;;;;;;5095684;28;20437;-67
2023/10/22 06:58:14;;;;;;;9.52;5.80;;;14.40;82.50;;;;;;5096495;28;20079;-67
2023/10/22 07:00:39;;;;;;;9.02;5.35;;;14.50;82.60;;;;;;5102984;28;20024;-67
2023/10/22 07:03:05;;;;;;;9.68;5.20;;;14.50;82.40;;;;;;5093464;28;20077;-67
2023/10/22 07:05:31;;;;;;;9.07;5.03;;;14.50;82.30;;;;;;5107268;28;20035;-66
2023/10/22 07:07:57;;;;;;;7.28;4.35;;;14.50;82.30;;;;;;5077011;28;20024;-67
2023/10/22 07:10:23;;;;;;;9.15;5.25;;;14.50;82.20;;;;;;5088865;28;20102;-67
2023/10/22 07:12:50;;;;;;;8.93;5.03;;;14.50;82.80;;;;;;5090868;28;20522;-67
2023/10/22 07:15:16;;;;;;;10.32;4.88;;;14.50;82.00;;;;;;5078643;28;20365;-67
2023/10/22 07:17:42;;;;;;;8.68;4.25;;;14.50;81.90;;;;;;5078552;28;20036;-67
2023/10/22 07:20:08;;;;;;;8.20;4.07;;;14.50;81.80;;;;;;5082637;28;20024;-66
2023/10/22 07:22:33;;;;;;;9.13;4.53;;;14.50;81.80;;;;;;5090358;28;20027;-66
2023/10/22 07:24:59;;;;;;;8.52;4.10;;;14.50;81.80;;;;;;5080751;28;20081;-67
2023/10/22 07:27:25;;;;;;;7.80;4.40;;;14.50;81.70;;;;;;5084533;28;20075;-67
2023/10/22 07:29:50;;;;;;;9.40;4.07;;;14.50;81.60;;;;;;5081722;28;20032;-67
2023/10/22 07:32:16;;;;;;;9.15;3.55;;;14.50;81.60;;;;;;5083614;28;20024;-67
2023/10/22 07:34:42;;;;;;;7.75;3.85;;;14.60;81.50;;;;;;5087491;28;20023;-66
2023/10/22 07:37:08;;;;;;;8.07;3.78;;;14.60;81.30;;;;;;5080213;28;20019;-67
2023/10/22 07:39:33;;;;;;;8.13;3.45;;;14.70;81.20;;;;;;5078471;28;20024;-67
2023/10/22 07:41:59;;;;;;;8.52;3.97;;;14.80;81.10;;;;;;5082323;28;20088;-67
2023/10/22 07:44:25;;;;;;;10.13;3.63;;;14.80;81.00;;;;;;5076843;28;20064;-67
2023/10/22 07:46:51;;;;;;;9.00;3.40;;;14.90;81.00;;;;;;5094318;28;20067;-67
2023/10/22 07:49:17;;;;;;;7.32;3.83;;;14.90;80.90;;;;;;5084874;28;20124;-67
2023/10/22 07:51:43;;;;;;;7.03;3.38;;;14.80;80.80;;;;;;5086304;28;20035;-67
2023/10/22 07:54:08;;;;;;;7.63;3.55;;;14.90;81.50;;;;;;5083946;28;20039;-67
2023/10/22 07:56:34;;;;;;;9.48;3.33;;;14.90;80.80;;;;;;5075764;28;20037;-66
2023/10/22 07:59:00;;;;;;;7.35;2.97;;;14.90;80.80;;;;;;5090433;28;20355;-67
2023/10/22 08:01:26;;;;;;;6.72;3.08;;;14.90;80.60;;;;;;5088155;28;20032;-67
2023/10/22 08:03:52;;;;;;;8.02;3.35;;;14.90;80.50;;;;;;5083393;28;20032;-67
2023/10/22 08:06:17;;;;;;;8.52;3.17;;;14.90;80.40;;;;;;5083769;28;20111;-67
2023/10/22 08:08:43;;;;;;;7.15;3.15;;;14.80;80.40;;;;;;5080090;28;20039;-66
2023/10/22 08:11:09;;;;;;;6.88;2.83;;;14.90;80.40;;;;;;5076113;28;20056;-67
2023/10/22 08:13:35;;;;;;;6.78;2.70;;;14.80;80.30;;;;;;5077697;28;20059;-67
2023/10/22 08:16:05;;;;;;;7.15;2.63;;;14.80;80.30;;;;;;5076508;28;20107;-67
2023/10/22 08:18:32;;;;;;;8.82;2.65;;;14.80;80.10;;;;;;5081514;28;20093;-67
2023/10/22 08:21:06;;;;;;;8.05;2.50;;;14.90;80.10;;;;;;5078999;28;20020;-66
2023/10/22 08:23:32;;;;;;;7.88;2.67;;;14.90;79.90;;;;;;5085649;28;20385;-66
2023/10/22 08:25:58;;;;;;;6.35;2.95;;;14.90;79.80;;;;;;5074000;28;20349;-66
2023/10/22 08:28:24;;;;;;;6.25;2.58;;;15.00;79.70;;;;;;5075118;28;20024;-66
2023/10/22 08:30:50;;;;;;;5.28;1.98;;;15.10;79.60;;;;;;5078019;28;20028;-66
2023/10/22 08:33:17;;;;;;;6.47;2.38;;;15.10;79.40;;;;;;5076591;28;20425;-67
2023/10/22 08:35:43;;;;;;;6.95;2.45;;;15.10;79.30;;;;;;5102928;28;20082;-66
2023/10/22 08:38:09;;;;;;;5.70;2.45;;;15.10;79.30;;;;;;5109273;28;20024;-66
2023/10/22 08:40:41;;;;;;;5.65;2.13;;;15.10;79.30;;;;;;5086156;28;20424;-66
2023/10/22 08:43:17;;;;;;;6.63;2.58;;;15.00;79.30;;;;;;5102358;28;20103;-66
2023/10/22 08:45:48;;;;;;;7.03;2.13;;;15.00;79.30;;;;;;5102319;28;20031;-66
2023/10/22 08:48:15;;;;;;;8.15;2.40;;;15.00;79.40;;;;;;5113539;28;20116;-66
2023/10/22 08:50:48;;;;;;;5.25;2.08;;;15.00;79.40;;;;;;5101720;28;20331;-66
2023/10/22 08:53:15;;;;;;;7.55;2.65;;;15.00;79.50;;;;;;5111365;28;20089;-66
2023/10/22 08:55:46;;;;;;;5.45;1.95;;;15.10;79.50;;;;;;5095659;28;20035;-66
2023/10/22 08:58:15;;;;;;;4.70;1.60;;;15.10;79.40;;;;;;5093786;28;20105;-66
2023/10/22 09:00:46;;;;;;;4.55;1.98;;;15.10;79.30;;;;;;5079653;28;20397;-66
2023/10/22 09:03:14;;;;;;;5.32;1.85;;;15.10;79.20;;;;;;5099567;28;20027;-66
2023/10/22 09:05:40;;;;;;;4.03;1.70;;;15.10;79.10;;;;;;5096690;28;20153;-67
2023/10/22 09:08:05;;;;;;;3.88;1.83;;;15.20;79.10;;;;;;5089323;28;20039;-66
2023/10/22 09:10:32;;;;;;;4.10;1.58;;;15.20;79.10;;;;;;5112907;28;20036;-66
2023/10/22 09:13:07;;;;;;;5.85;1.77;;;15.20;79.10;;;;;;5097319;28;20028;-66
2023/10/22 09:15:41;;;;;;;5.65;1.85;;;15.20;78.90;;;;;;5106362;28;20028;-66
2023/10/22 09:18:07;;;;;;;6.63;1.70;;;15.20;78.90;;;;;;5118197;28;20035;-66
2023/10/22 09:20:36;;;;;;;4.35;1.85;;;15.30;79.10;;;;;;5100020;28;20070;-66
2023/10/22 09:23:17;;;;;;;5.07;1.75;;;15.30;78.80;;;;;;5079686;28;20016;-67
2023/10/22 09:25:47;;;;;;;3.55;1.60;;;15.40;78.80;;;;;;5106597;28;20475;-67
2023/10/22 09:28:14;;;;;;;5.65;2.03;;;15.40;78.80;;;;;;5089157;28;20443;-67
2023/10/22 09:30:41;;;;;;;6.20;1.90;;;15.40;78.80;;;;;;5081506;28;20326;-66
2023/10/22 09:33:11;;;;;;;6.03;2.08;;;15.40;78.70;;;;;;5117548;28;20351;-66
2023/10/22 09:35:37;;;;;;;6.38;2.08;;;15.50;78.70;;;;;;5118905;28;20035;-66
2023/10/22 09:38:03;;;;;;;5.00;2.03;;;15.50;78.70;;;;;;5110837;28;20326;-66
2023/10/22 09:40:35;;;;;;;4.60;2.00;;;15.50;78.60;;;;;;5090402;28;20021;-66
2023/10/22 09:43:02;;;;;;;6.60;2.10;;;15.60;78.60;;;;;;5076639;28;20062;-66
2023/10/22 09:45:30;;;;;;;6.10;2.30;;;15.60;78.40;;;;;;5092958;28;20035;-66
2023/10/22 09:47:56;;;;;;;4.93;1.60;;;15.70;78.40;;;;;;5092569;28;20118;-67
2023/10/22 09:50:23;;;;;;;5.25;1.90;;;15.70;78.30;;;;;;5084332;28;20028;-67
2023/10/22 09:52:51;;;;;;;4.38;1.67;;;15.80;78.30;;;;;;5092045;28;20028;-67
2023/10/22 09:55:17;;;;;;;6.80;1.95;;;15.90;78.10;;;;;;5100298;28;20032;-66
2023/10/22 09:57:46;;;;;;;4.53;1.73;;;16.00;78.00;;;;;;5090190;28;20037;-66
2023/10/22 10:00:12;;;;;;;5.53;1.80;;;16.10;77.90;;;;;;5089710;28;20031;-66
2023/10/22 10:02:43;;;;;;;3.75;1.50;;;16.20;77.80;;;;;;5088886;28;20062;-66
2023/10/22 10:05:12;;;;;;;4.45;1.70;;;16.20;77.40;;;;;;5090349;28;20055;-67
2023/10/22 10:07:39;;;;;;;6.45;1.75;;;16.30;77.20;;;;;;5090613;28;20441;-67
2023/10/22 10:10:06;;;;;;;3.60;1.70;;;16.30;77.00;;;;;;5089966;28;20036;-66
2023/10/22 10:12:36;;;;;;;4.47;1.77;;;16.40;76.90;;;;;;5089894;28;20131;-67
2023/10/22 10:15:01;;;;;;;3.72;1.73;;;16.40;76.80;;;;;;5090164;28;20103;-67
2023/10/22 10:17:27;;;;;;;5.38;1.75;;;16.50;76.80;;;;;;5087643;28;20516;-67
2023/10/22 10:20:26;;;;;;;4.35;1.67;;;16.50;76.50;;;;;;5089193;28;20028;-67
2023/10/22 10:23:09;;;;;;;4.72;1.42;;;16.60;76.20;;;;;;5080357;28;20036;-67
2023/10/22 10:25:39;;;;;;;4.68;1.58;;;16.60;75.90;;;;;;5096041;28;20035;-67
2023/10/22 10:28:10;;;;;;;3.83;1.58;;;16.60;75.90;;;;;;5083122;28;20472;-67
2023/10/22 10:30:37;;;;;;;5.38;1.40;;;16.60;75.90;;;;;;5089668;28;20487;-67
2023/10/22 10:33:03;;;;;;;4.68;1.58;;;16.70;75.80;;;;;;5082875;28;20064;-68
2023/10/22 10:35:41;;;;;;;3.20;1.33;;;16.70;75.70;;;;;;5088053;28;20157;-67
2023/10/22 10:38:17;;;;;;;5.18;1.50;;;16.70;75.50;;;;;;5088987;28;20036;-67
2023/10/22 10:40:45;;;;;;;2.95;1.30;;;16.70;75.20;;;;;;5081213;28;20458;-67
2023/10/22 10:43:11;;;;;;;4.30;1.58;;;16.80;75.00;;;;;;5063247;28;20035;-67
2023/10/22 10:45:41;;;;;;;4.25;1.58;;;16.90;74.90;;;;;;5087516;28;20508;-67
2023/10/22 10:48:43;;;;;;;3.53;1.25;;;16.90;74.70;;;;;;5097470;28;20055;-67
2023/10/22 10:51:23;;;;;;;5.05;1.35;;;17.10;74.50;;;;;;5089726;28;20372;-67
2023/10/22 10:54:04;;;;;;;5.15;1.60;;;17.10;74.20;;;;;;5072405;28;20127;-67
2023/10/22 10:56:50;;;;;;;4.63;1.50;;;17.00;74.10;;;;;;5086212;28;20047;-67
2023/10/22 10:59:36;;;;;;;4.60;1.23;;;17.10;74.10;;;;;;5087428;28;20111;-67
2023/10/22 11:02:10;;;;;;;3.58;1.30;;;17.20;74.00;;;;;;5080301;28;20021;-67
2023/10/22 11:04:37;;;;;;;5.45;1.45;;;17.20;73.80;;;;;;5084899;28;20033;-67
2023/10/22 11:07:04;;;;;;;4.25;1.30;;;17.20;73.70;;;;;;5073798;28;20032;-68
2023/10/22 11:09:37;;;;;;;5.43;1.40;;;17.10;73.50;;;;;;5082846;28;20028;-67
2023/10/22 11:12:05;;;;;;;4.82;1.40;;;17.10;73.20;;;;;;5077966;28;20040;-67
2023/10/22 11:14:32;;;;;;;4.65;1.30;;;17.20;72.90;;;;;;5098632;28;20376;-67
2023/10/22 11:16:58;;;;;;;3.22;1.27;;;17.20;72.60;;;;;;5075975;28;20046;-67
2023/10/22 11:19:26;;;;;;;4.15;1.17;;;17.20;72.50;;;;;;5075961;28;20021;-67
2023/10/22 11:21:56;;;;;;;4.43;1.50;;;17.20;72.40;;;;;;5064726;28;20102;-67
2023/10/22 11:24:29;;;;;;;4.55;1.73;;;17.20;72.30;;;;;;5085916;28;20032;-67
2023/10/22 11:26:57;;;;;;;4.38;1.52;;;17.20;72.20;;;;;;5087998;28;20407;-68
2023/10/22 11:29:22;;;;;;;4.90;1.60;;;17.20;72.20;;;;;;5088593;28;20032;-67
2023/10/22 11:31:56;;;;;;;6.22;1.70;;;17.20;72.10;;;;;;5090136;28;20464;-67
2023/10/22 11:34:22;;;;;;;4.50;1.50;;;17.20;72.10;;;;;;5087047;28;20024;-67
2023/10/22 11:36:48;;;;;;;4.10;1.70;;;17.20;72.00;;;;;;5077478;28;20035;-67
2023/10/22 11:39:21;;;;;;;3.97;1.70;;;17.10;72.00;;;;;;5088281;28;20024;-67
2023/10/22 11:41:58;;;;;;;3.85;1.48;;;17.10;71.70;;;;;;5086943;28;20052;-67
2023/10/22 11:44:32;;;;;;;5.97;1.58;;;17.10;72.20;;;;;;5087229;28;20089;-67
2023/10/22 11:46:59;;;;;;;4.30;1.63;;;17.10;71.50;;;;;;5068019;28;20028;-67
2023/10/22 11:49:25;;;;;;;4.60;1.50;;;17.10;71.60;;;;;;5089676;28;20032;-67
2023/10/22 11:51:51;;;;;;;4.80;1.85;;;17.10;72.10;;;;;;5068999;28;20089;-67
2023/10/22 11:54:16;;;;;;;5.38;1.58;;;17.10;71.40;;;;;;5084627;28;20039;-67
2023/10/22 11:56:42;;;;;;;5.25;1.90;;;17.00;71.20;;;;;;5089962;28;20035;-67
2023/10/22 11:59:08;;;;;;;5.38;2.00;;;17.10;71.20;;;;;;5073579;28;20024;-67
2023/10/22 12:01:34;;;;;;;4.70;1.83;;;17.00;71.10;;;;;;5108261;28;20100;-67
2023/10/22 12:04:00;;;;;;;4.57;1.98;;;17.00;71.10;;;;;;5099548;28;20107;-67
2023/10/22 12:06:26;;;;;;;5.00;1.77;;;17.00;71.10;;;;;;5092072;28;20127;-67
2023/10/22 12:08:51;;;;;;;4.43;1.83;;;17.00;71.00;;;;;;5105249;28;20024;-67
2023/10/22 12:11:17;;;;;;;5.38;1.70;;;17.00;71.00;;;;;;5095448;28;20115;-67
2023/10/22 12:13:43;;;;;;;5.10;2.00;;;17.00;70.90;;;;;;5101070;28;20051;-66
2023/10/22 12:16:08;;;;;;;4.80;1.90;;;17.00;70.90;;;;;;5086892;28;20094;-67
2023/10/22 12:18:34;;;;;;;4.25;1.80;;;17.00;70.80;;;;;;5088210;28;20024;-68
2023/10/22 12:21:01;;;;;;;5.28;2.10;;;17.00;70.80;;;;;;5090866;28;20036;-67
2023/10/22 12:23:26;;;;;;;5.38;2.20;;;17.10;71.60;;;;;;5075043;28;20019;-67
2023/10/22 12:25:52;;;;;;;4.10;1.90;;;17.10;70.80;;;;;;5089836;28;20036;-67
2023/10/22 12:28:18;;;;;;;4.68;2.03;;;17.10;70.70;;;;;;5086504;28;20341;-67
2023/10/22 12:30:44;;;;;;;8.27;2.45;;;17.10;70.50;;;;;;5071027;28;20032;-67
2023/10/22 12:33:09;;;;;;;5.90;2.00;;;17.10;70.30;;;;;;5065336;28;20032;-67
2023/10/22 12:35:41;;;;;;;5.20;2.20;;;17.10;70.20;;;;;;5088556;28;20123;-67
2023/10/22 12:38:07;;;;;;;5.05;2.03;;;17.10;70.10;;;;;;5084659;28;20028;-67
2023/10/22 12:40:34;;;;;;;6.30;2.35;;;17.10;70.10;;;;;;5078697;28;20472;-67
2023/10/22 12:43:00;;;;;;;7.40;2.53;;;17.10;70.00;;;;;;5074724;28;20028;-67
2023/10/22 12:45:27;;;;;;;5.60;2.33;;;17.10;70.00;;;;;;5088819;28;20115;-67
2023/10/22 12:47:52;;;;;;;5.05;2.38;;;17.10;69.80;;;;;;5092159;28;20028;-68